Time;durP1;ratioP1;P1;durP2;ratioP2;P2;SDS_P1;SDS_P2;PMS_P1;PMS_P2;Temp;Humidity;BMP_temperature;BMP_pressure;BME280_temperature;BME280_humidity;BME280_pressure;Samples;Min_cycle;Max_cycle;Signal;HPM_P1;HPM_P2
2023/07/18 00:01:43;;;;;;;5.30;3.20;;;26.00;45.60;;;;;;222431;1263;25427;-51
2023/07/18 00:06:47;;;;;;;4.90;3.00;;;26.00;45.70;;;;;;222251;1253;22517;-49
2023/07/18 00:11:51;;;;;;;4.60;3.00;;;26.00;45.50;;;;;;222624;1255;22504;-50
2023/07/18 00:16:56;;;;;;;4.70;2.80;;;26.00;46.10;;;;;;222025;1245;24730;-51
2023/07/18 00:22:00;;;;;;;5.60;3.20;;;26.00;46.10;;;;;;222675;1263;22511;-52
2023/07/18 00:27:04;;;;;;;2.60;2.40;;;26.00;46.40;;;;;;222561;1256;25902;-47
2023/07/18 00:32:08;;;;;;;5.10;2.70;;;26.00;46.40;;;;;;222825;1267;25340;-45
2023/07/18 00:37:14;;;;;;;5.40;2.90;;;26.00;46.80;;;;;;222498;1254;25297;-47
2023/07/18 00:42:19;;;;;;;4.30;2.70;;;26.00;47.30;;;;;;222779;1255;22498;-50
2023/07/18 00:47:24;;;;;;;3.20;2.60;;;26.00;47.60;;;;;;222874;1263;25383;-51
2023/07/18 00:52:28;;;;;;;4.20;2.90;;;26.00;48.00;;;;;;222540;1251;24354;-47
2023/07/18 00:57:35;;;;;;;4.40;3.40;;;26.00;48.20;;;;;;222629;1254;22721;-51
2023/07/18 01:02:41;;;;;;;6.30;2.80;;;25.90;48.60;;;;;;222758;1262;22518;-53
2023/07/18 01:07:47;;;;;;;2.90;2.50;;;25.90;48.70;;;;;;222689;1259;22514;-48
2023/07/18 01:12:52;;;;;;;4.10;2.90;;;25.70;48.10;;;;;;222597;1261;24202;-50
2023/07/18 01:18:07;;;;;;;3.10;2.40;;;25.80;48.80;;;;;;223107;1253;24003;-51
2023/07/18 01:23:12;;;;;;;2.80;2.40;;;25.70;48.90;;;;;;222467;1262;22550;-52
2023/07/18 01:28:16;;;;;;;3.10;2.70;;;25.80;49.30;;;;;;222475;1263;22515;-49
2023/07/18 01:33:20;;;;;;;2.60;2.50;;;25.80;49.00;;;;;;222510;1267;24291;-53
2023/07/18 01:38:29;;;;;;;3.50;2.50;;;25.80;49.00;;;;;;222556;1260;22518;-49
2023/07/18 01:43:34;;;;;;;4.50;2.80;;;25.90;48.80;;;;;;222360;1267;22635;-49
2023/07/18 01:48:38;;;;;;;3.20;2.80;;;25.90;48.90;;;;;;222716;1263;22637;-49
2023/07/18 01:53:43;;;;;;;4.00;2.70;;;25.90;48.90;;;;;;222299;1263;22505;-51
2023/07/18 01:58:47;;;;;;;4.30;2.80;;;26.00;48.90;;;;;;222766;1254;22553;-51
2023/07/18 02:03:51;;;;;;;3.90;2.30;;;26.00;48.90;;;;;;222722;1261;22616;-48
2023/07/18 02:08:55;;;;;;;2.60;2.40;;;26.00;49.20;;;;;;222592;1267;22520;-50
2023/07/18 02:14:00;;;;;;;3.00;2.30;;;26.00;48.90;;;;;;222307;1257;386111;-48
2023/07/18 02:19:04;;;;;;;3.10;2.70;;;26.00;48.90;;;;;;222472;1267;24195;-48
2023/07/18 02:24:08;;;;;;;2.50;2.30;;;26.00;49.00;;;;;;222659;1256;22502;-49
2023/07/18 02:29:13;;;;;;;3.50;3.00;;;26.00;49.00;;;;;;222827;1263;24217;-50
2023/07/18 02:34:17;;;;;;;3.50;2.20;;;26.00;49.10;;;;;;222820;1263;24049;-50
2023/07/18 02:39:21;;;;;;;3.80;2.10;;;26.00;49.20;;;;;;222694;1261;22564;-47
2023/07/18 02:44:26;;;;;;;2.50;2.30;;;26.00;49.20;;;;;;222486;1257;23226;-50
2023/07/18 02:49:31;;;;;;;2.90;2.30;;;26.00;49.20;;;;;;222490;1258;22521;-49
2023/07/18 02:54:35;;;;;;;2.60;2.40;;;26.00;49.20;;;;;;222568;1260;22549;-51
2023/07/18 02:59:40;;;;;;;2.50;2.30;;;25.90;49.30;;;;;;222611;1266;22527;-51
2023/07/18 03:04:48;;;;;;;2.90;2.10;;;25.90;49.70;;;;;;222556;1266;23911;-50
2023/07/18 03:09:52;;;;;;;3.00;2.60;;;25.90;49.30;;;;;;222269;1266;25370;-49
2023/07/18 03:14:56;;;;;;;2.40;2.20;;;25.90;49.50;;;;;;222283;1259;24210;-50
2023/07/18 03:20:00;;;;;;;2.80;2.30;;;25.90;49.50;;;;;;222410;1254;22514;-50
2023/07/18 03:25:07;;;;;;;2.50;2.10;;;25.90;49.50;;;;;;222274;1266;25438;-50
2023/07/18 03:30:12;;;;;;;2.70;2.50;;;25.90;49.70;;;;;;222687;1266;22589;-52
2023/07/18 03:35:16;;;;;;;2.20;2.00;;;25.90;49.70;;;;;;222530;1269;24334;-48
2023/07/18 03:40:20;;;;;;;3.40;2.80;;;25.80;49.70;;;;;;222521;1266;22726;-51
2023/07/18 03:45:24;;;;;;;2.30;2.10;;;25.80;49.80;;;;;;222194;1269;24206;-50
2023/07/18 03:50:28;;;;;;;4.30;2.30;;;25.80;49.90;;;;;;222308;1264;22748;-50
2023/07/18 03:55:33;;;;;;;2.80;2.40;;;25.70;50.00;;;;;;222553;1254;22511;-52
2023/07/18 04:00:37;;;;;;;2.60;2.10;;;25.70;50.40;;;;;;222208;1257;22500;-50
2023/07/18 04:05:41;;;;;;;3.50;2.30;;;25.70;50.20;;;;;;222443;1269;25499;-49
2023/07/18 04:10:45;;;;;;;2.80;2.40;;;25.60;50.50;;;;;;222286;1263;22511;-48
2023/07/18 04:15:49;;;;;;;3.20;2.00;;;25.60;50.50;;;;;;222248;1266;22558;-54
2023/07/18 04:21:04;;;;;;;3.30;2.50;;;25.60;50.60;;;;;;222166;1266;22506;-50
2023/07/18 04:26:09;;;;;;;4.50;2.50;;;25.50;50.60;;;;;;222280;1268;22514;-50
2023/07/18 04:31:13;;;;;;;2.40;2.10;;;25.50;51.00;;;;;;222206;1269;23604;-47
2023/07/18 04:36:21;;;;;;;2.80;2.50;;;25.40;50.70;;;;;;222372;1266;23886;-51
2023/07/18 04:41:25;;;;;;;2.30;2.10;;;25.40;50.80;;;;;;222247;1263;22520;-47
2023/07/18 04:46:37;;;;;;;3.20;2.40;;;25.40;51.50;;;;;;221926;1269;22659;-50
2023/07/18 04:51:41;;;;;;;2.90;2.50;;;25.40;50.90;;;;;;222202;1269;24249;-50
2023/07/18 04:56:46;;;;;;;3.50;2.70;;;25.40;50.90;;;;;;222155;1254;24187;-50
2023/07/18 05:01:56;;;;;;;2.60;2.20;;;25.40;50.80;;;;;;221978;1269;22511;-50
2023/07/18 05:07:00;;;;;;;5.10;2.70;;;25.40;51.00;;;;;;222028;1263;22861;-48
2023/07/18 05:12:05;;;;;;;3.90;2.40;;;25.30;51.10;;;;;;222347;1257;22690;-49
2023/07/18 05:17:10;;;;;;;2.70;2.40;;;25.30;51.10;;;;;;222596;1266;22984;-49
2023/07/18 05:22:14;;;;;;;5.30;2.10;;;25.30;51.40;;;;;;222489;1263;22528;-50
2023/07/18 05:27:18;;;;;;;4.40;2.50;;;25.30;51.00;;;;;;222816;1253;22545;-50
2023/07/18 05:32:22;;;;;;;4.40;2.70;;;25.20;51.20;;;;;;222302;1266;22510;-51
2023/07/18 05:37:28;;;;;;;2.70;2.50;;;25.20;50.80;;;;;;222743;1253;24262;-50
2023/07/18 05:42:32;;;;;;;3.90;2.60;;;25.20;50.80;;;;;;222854;1253;25230;-49
2023/07/18 05:47:37;;;;;;;2.50;2.30;;;25.10;50.50;;;;;;222627;1264;22524;-48
2023/07/18 05:52:42;;;;;;;4.30;2.60;;;25.10;50.50;;;;;;222578;1254;23102;-51
2023/07/18 05:57:47;;;;;;;4.00;2.50;;;25.10;50.40;;;;;;222978;1256;25060;-50
2023/07/18 06:02:51;;;;;;;6.50;2.20;;;25.20;50.30;;;;;;222695;1253;24276;-50
2023/07/18 06:07:58;;;;;;;2.30;2.10;;;25.20;50.20;;;;;;222228;1260;24358;-46
2023/07/18 06:13:02;;;;;;;4.40;2.40;;;25.10;50.10;;;;;;222521;1263;22531;-49
2023/07/18 06:18:06;;;;;;;3.10;2.00;;;25.20;50.10;;;;;;222530;1261;22520;-49
2023/07/18 06:23:10;;;;;;;2.40;2.20;;;25.20;50.10;;;;;;222586;1257;22509;-51
2023/07/18 06:28:15;;;;;;;2.30;2.10;;;25.20;49.80;;;;;;222470;1266;24665;-49
2023/07/18 06:33:20;;;;;;;2.10;1.90;;;25.20;49.80;;;;;;222628;1267;22788;-52
2023/07/18 06:38:26;;;;;;;3.00;2.20;;;25.30;49.70;;;;;;222736;1260;22511;-50
2023/07/18 06:43:32;;;;;;;2.50;2.20;;;25.20;49.60;;;;;;222676;1263;22518;-48
2023/07/18 06:48:36;;;;;;;3.90;2.10;;;25.20;49.70;;;;;;222661;1261;25582;-51
2023/07/18 06:53:40;;;;;;;2.30;2.00;;;25.30;49.20;;;;;;222765;1266;24295;-51
2023/07/18 06:58:45;;;;;;;2.90;2.20;;;25.40;49.30;;;;;;222607;1263;22620;-51
2023/07/18 07:03:49;;;;;;;2.20;2.10;;;25.30;49.30;;;;;;222646;1259;25616;-48
2023/07/18 07:08:54;;;;;;;2.40;2.10;;;25.40;49.00;;;;;;222623;1266;22524;-46
2023/07/18 07:13:58;;;;;;;3.90;1.90;;;25.50;48.60;;;;;;222401;1267;24345;-47
2023/07/18 07:19:03;;;;;;;3.80;2.00;;;25.60;49.10;;;;;;222479;1254;25450;-46
2023/07/18 07:24:08;;;;;;;1.80;1.70;;;25.60;48.40;;;;;;223002;1267;22502;-49
2023/07/18 07:29:13;;;;;;;3.40;2.10;;;25.50;48.30;;;;;;222650;1260;22644;-47
2023/07/18 07:34:20;;;;;;;3.10;2.60;;;25.50;48.50;;;;;;222371;1261;24176;-48
2023/07/18 07:39:24;;;;;;;2.70;2.00;;;25.50;48.50;;;;;;222290;1260;22522;-47
2023/07/18 07:44:28;;;;;;;1.90;1.70;;;25.50;48.80;;;;;;222423;1261;23883;-49
2023/07/18 07:49:32;;;;;;;3.80;2.10;;;25.60;48.30;;;;;;222316;1267;22609;-48
2023/07/18 07:54:36;;;;;;;2.10;1.90;;;25.70;48.40;;;;;;222461;1256;22561;-48
2023/07/18 07:59:42;;;;;;;2.40;2.10;;;25.60;48.40;;;;;;222471;1267;22505;-48
2023/07/18 08:04:49;;;;;;;2.90;1.70;;;25.70;47.90;;;;;;222340;1268;24266;-44
2023/07/18 08:09:54;;;;;;;2.10;1.70;;;25.70;48.00;;;;;;222595;1265;22524;-46
2023/07/18 08:14:58;;;;;;;1.80;1.70;;;25.70;48.10;;;;;;222667;1263;22575;-47
2023/07/18 08:20:04;;;;;;;4.30;2.20;;;25.70;48.30;;;;;;222610;1267;26590;-49
2023/07/18 08:25:10;;;;;;;2.10;1.70;;;25.70;47.80;;;;;;222680;1257;24028;-47
2023/07/18 08:30:14;;;;;;;1.70;1.60;;;25.80;47.80;;;;;;222265;1267;22922;-50
2023/07/18 08:35:19;;;;;;;2.90;1.70;;;25.80;47.70;;;;;;222618;1266;22524;-50
2023/07/18 08:40:24;;;;;;;1.40;1.30;;;25.80;47.30;;;;;;222382;1253;24763;-46
2023/07/18 08:45:32;;;;;;;2.00;1.80;;;25.80;47.20;;;;;;222324;1267;24240;-46
2023/07/18 08:50:39;;;;;;;1.40;1.30;;;25.80;47.10;;;;;;222473;1266;22514;-46
2023/07/18 08:55:44;;;;;;;4.00;1.90;;;25.80;47.10;;;;;;222394;1263;24173;-49
2023/07/18 09:00:48;;;;;;;1.50;1.40;;;25.80;47.00;;;;;;222594;1267;26475;-49
2023/07/18 09:05:53;;;;;;;2.00;1.40;;;25.80;46.90;;;;;;222247;1267;22512;-48
2023/07/18 09:11:03;;;;;;;1.70;1.40;;;25.90;47.10;;;;;;222394;1266;22554;-48
2023/07/18 09:16:15;;;;;;;2.20;1.50;;;25.90;47.00;;;;;;222323;1268;22513;-45
2023/07/18 09:21:21;;;;;;;1.50;1.40;;;25.90;47.20;;;;;;222426;1266;22772;-48
2023/07/18 09:26:26;;;;;;;1.80;1.60;;;26.00;47.10;;;;;;223028;1267;24228;-47
2023/07/18 09:31:32;;;;;;;5.40;2.40;;;26.00;47.00;;;;;;222569;1264;24190;-47
2023/07/18 09:36:36;;;;;;;3.20;1.70;;;25.90;46.50;;;;;;222695;1268;22560;-49
2023/07/18 09:41:40;;;;;;;4.60;2.10;;;26.00;46.90;;;;;;222510;1266;22509;-47
2023/07/18 09:46:45;;;;;;;2.40;1.60;;;26.00;46.80;;;;;;222935;1266;24082;-50
2023/07/18 09:52:03;;;;;;;1.70;1.60;;;26.00;46.30;;;;;;223043;1266;22532;-47
2023/07/18 09:57:09;;;;;;;2.50;2.00;;;26.00;46.40;;;;;;223129;1267;22625;-47
2023/07/18 10:02:15;;;;;;;1.70;1.40;;;26.00;45.80;;;;;;223025;1266;22507;-49
2023/07/18 10:07:20;;;;;;;2.00;1.70;;;26.00;46.00;;;;;;222903;1266;22536;-46
2023/07/18 10:12:24;;;;;;;1.80;1.60;;;26.00;45.50;;;;;;223483;1264;22531;-50
2023/07/18 10:17:32;;;;;;;2.30;1.50;;;26.00;45.30;;;;;;223092;1267;22494;-54
2023/07/18 10:22:37;;;;;;;1.80;1.60;;;26.10;45.20;;;;;;223191;1267;24180;-48
2023/07/18 10:27:43;;;;;;;4.70;1.60;;;26.10;45.20;;;;;;223508;1263;22519;-48
2023/07/18 10:33:08;;;;;;;1.90;1.60;;;26.10;45.20;;;;;;223328;1261;23131;-49
2023/07/18 10:38:14;;;;;;;2.40;1.80;;;26.10;44.90;;;;;;223321;1260;22761;-47
2023/07/18 10:43:18;;;;;;;2.50;1.60;;;26.20;44.90;;;;;;223570;1267;25602;-49
2023/07/18 10:48:22;;;;;;;1.50;1.40;;;26.20;44.80;;;;;;222636;1266;22513;-46
2023/07/18 10:53:28;;;;;;;1.80;1.50;;;26.20;45.00;;;;;;222465;1257;25305;-47
2023/07/18 10:58:32;;;;;;;1.90;1.60;;;26.20;45.00;;;;;;222464;1266;22517;-49
2023/07/18 11:03:37;;;;;;;1.80;1.60;;;26.20;45.20;;;;;;222497;1264;22615;-46
2023/07/18 11:08:45;;;;;;;1.50;1.40;;;26.20;45.10;;;;;;222499;1267;22605;-47
2023/07/18 11:13:49;;;;;;;1.90;1.70;;;26.20;45.20;;;;;;222842;1257;22501;-47
2023/07/18 11:18:54;;;;;;;1.60;1.50;;;26.20;45.30;;;;;;222409;1267;23875;-50
2023/07/18 11:23:59;;;;;;;2.10;1.70;;;26.30;44.70;;;;;;222697;1266;22513;-46
2023/07/18 11:29:04;;;;;;;2.40;1.70;;;26.40;45.10;;;;;;222583;1267;24872;-47
2023/07/18 11:34:09;;;;;;;2.80;1.70;;;26.30;44.80;;;;;;222153;1261;23043;-49
2023/07/18 11:39:21;;;;;;;3.90;1.40;;;26.40;44.20;;;;;;222384;1260;25358;-47
2023/07/18 11:44:26;;;;;;;3.60;1.50;;;26.40;44.80;;;;;;222756;1261;23562;-47
2023/07/18 11:49:35;;;;;;;2.60;1.60;;;26.50;44.10;;;;;;222374;1260;22529;-45
2023/07/18 11:54:40;;;;;;;1.70;1.40;;;26.60;43.90;;;;;;222514;1261;24214;-48
2023/07/18 11:59:44;;;;;;;1.60;1.50;;;26.40;44.00;;;;;;222748;1254;23934;-47
2023/07/18 12:04:48;;;;;;;1.80;1.60;;;26.50;43.80;;;;;;222629;1268;22508;-49
2023/07/18 12:09:52;;;;;;;1.60;1.50;;;26.50;44.40;;;;;;222423;1257;22627;-47
2023/07/18 12:14:57;;;;;;;3.80;2.00;;;26.40;44.20;;;;;;222409;1266;24207;-50
2023/07/18 12:20:01;;;;;;;2.60;1.50;;;26.50;43.60;;;;;;222461;1260;22711;-50
2023/07/18 12:25:06;;;;;;;4.40;1.50;;;26.50;43.80;;;;;;222413;1267;22642;-46
2023/07/18 12:30:12;;;;;;;2.80;1.50;;;26.60;43.40;;;;;;224174;1261;22793;-45
2023/07/18 12:35:16;;;;;;;2.00;1.50;;;26.50;43.00;;;;;;222763;1259;24321;-46
2023/07/18 12:40:21;;;;;;;3.30;1.30;;;26.50;43.20;;;;;;222632;1267;22604;-50
2023/07/18 12:45:25;;;;;;;1.60;1.50;;;26.60;43.00;;;;;;222431;1264;25252;-47
2023/07/18 12:50:30;;;;;;;2.20;1.60;;;26.70;42.80;;;;;;222525;1251;22528;-48
2023/07/18 12:55:33;;;;;;;1.80;1.40;;;26.60;43.10;;;;;;222684;1254;22583;-48
2023/07/18 13:00:38;;;;;;;1.60;1.50;;;26.60;43.10;;;;;;222505;1263;22509;-48
2023/07/18 13:05:43;;;;;;;1.90;1.40;;;26.70;42.90;;;;;;222319;1257;24412;-46
2023/07/18 13:10:47;;;;;;;1.60;1.30;;;26.70;42.90;;;;;;222690;1260;22743;-46
2023/07/18 13:15:52;;;;;;;2.60;2.00;;;26.70;43.70;;;;;;222734;1257;22514;-48
2023/07/18 13:20:57;;;;;;;2.10;1.20;;;26.80;43.70;;;;;;222603;1263;25396;-49
2023/07/18 13:26:01;;;;;;;1.70;1.40;;;26.80;43.60;;;;;;222329;1267;24212;-50
2023/07/18 13:31:06;;;;;;;2.10;1.90;;;26.80;43.60;;;;;;222882;1267;22776;-52
2023/07/18 13:36:10;;;;;;;1.50;1.40;;;26.80;43.70;;;;;;222658;1264;22656;-48
2023/07/18 13:41:14;;;;;;;1.40;1.30;;;26.80;43.70;;;;;;222771;1267;24180;-48
2023/07/18 13:46:18;;;;;;;1.30;1.20;;;26.80;43.30;;;;;;222875;1267;24332;-48
2023/07/18 13:51:23;;;;;;;2.00;1.40;;;26.80;43.30;;;;;;222735;1268;22683;-47
2023/07/18 13:56:27;;;;;;;5.50;1.30;;;26.80;43.50;;;;;;222510;1263;25475;-47
2023/07/18 14:01:32;;;;;;;1.50;1.30;;;26.80;43.70;;;;;;222736;1260;22636;-48
2023/07/18 14:06:36;;;;;;;1.80;1.50;;;26.90;43.90;;;;;;222715;1267;25234;-46
2023/07/18 14:11:41;;;;;;;1.60;1.30;;;26.80;43.50;;;;;;222409;1261;22537;-47
2023/07/18 14:16:45;;;;;;;2.30;1.80;;;26.80;43.50;;;;;;222767;1251;232448;-49
2023/07/18 14:21:50;;;;;;;1.60;1.20;;;26.80;42.80;;;;;;222684;1266;22602;-47
2023/07/18 14:26:55;;;;;;;1.50;1.40;;;26.90;43.20;;;;;;222639;1263;23652;-46
2023/07/18 14:31:59;;;;;;;1.80;1.50;;;26.90;43.00;;;;;;222517;1264;25315;-47
2023/07/18 14:37:06;;;;;;;1.80;1.60;;;26.90;43.00;;;;;;222742;1267;25457;-48
2023/07/18 14:42:10;;;;;;;2.00;1.60;;;26.90;43.30;;;;;;222570;1264;24263;-47
2023/07/18 14:47:16;;;;;;;1.90;1.00;;;26.80;43.30;;;;;;222440;1254;22652;-48
2023/07/18 14:52:20;;;;;;;2.10;1.50;;;26.90;43.00;;;;;;222591;1251;25255;-50
2023/07/18 14:57:28;;;;;;;1.90;1.50;;;26.90;43.10;;;;;;222719;1260;22643;-47
2023/07/18 15:02:35;;;;;;;2.50;1.40;;;26.80;42.90;;;;;;222499;1267;24159;-48
2023/07/18 15:07:39;;;;;;;2.10;1.50;;;26.80;42.10;;;;;;222460;1251;22646;-48
2023/07/18 15:12:46;;;;;;;4.10;1.80;;;26.80;42.20;;;;;;222663;1257;24182;-51
2023/07/18 15:17:52;;;;;;;2.10;1.30;;;26.80;41.60;;;;;;222652;1256;22522;-46
2023/07/18 15:22:56;;;;;;;2.70;1.50;;;26.80;42.20;;;;;;222355;1250;25256;-47
2023/07/18 15:28:01;;;;;;;1.40;1.30;;;26.80;42.00;;;;;;222703;1260;22532;-49
2023/07/18 15:33:05;;;;;;;2.40;1.40;;;26.80;42.30;;;;;;222428;1254;22518;-48
2023/07/18 15:38:28;;;;;;;2.10;1.50;;;26.80;42.10;;;;;;222393;1263;22789;-47
2023/07/18 15:43:34;;;;;;;1.80;1.40;;;26.80;42.10;;;;;;222419;1260;25542;-46
2023/07/18 15:48:43;;;;;;;1.10;1.10;;;26.90;42.40;;;;;;222781;1254;24173;-47
2023/07/18 15:53:48;;;;;;;1.60;1.40;;;26.80;41.80;;;;;;222573;1263;22544;-48
2023/07/18 15:58:52;;;;;;;3.20;1.70;;;26.80;41.70;;;;;;222816;1254;22514;-46
2023/07/18 16:03:56;;;;;;;1.40;1.30;;;26.90;41.80;;;;;;222728;1256;24200;-48
2023/07/18 16:09:02;;;;;;;2.40;1.80;;;26.80;41.80;;;;;;222451;1251;25380;-47
2023/07/18 16:14:06;;;;;;;1.50;1.40;;;26.80;41.70;;;;;;222581;1253;22586;-48
2023/07/18 16:19:11;;;;;;;2.30;1.50;;;26.80;41.40;;;;;;222558;1267;22517;-48
2023/07/18 16:24:15;;;;;;;1.60;1.40;;;26.80;41.50;;;;;;222536;1256;25572;-48
2023/07/18 16:29:20;;;;;;;2.40;1.30;;;26.80;41.20;;;;;;222659;1267;22518;-47
2023/07/18 16:34:25;;;;;;;2.00;1.40;;;26.80;41.80;;;;;;222657;1251;22712;-45
2023/07/18 16:39:30;;;;;;;2.20;1.30;;;26.80;41.50;;;;;;222711;1254;22510;-50
2023/07/18 16:44:35;;;;;;;2.00;1.50;;;26.80;41.40;;;;;;223113;1254;23896;-46
2023/07/18 16:49:40;;;;;;;2.40;1.40;;;26.80;41.30;;;;;;222714;1266;22659;-47
2023/07/18 16:54:45;;;;;;;2.10;1.40;;;26.80;41.60;;;;;;222724;1260;22512;-49
2023/07/18 16:59:49;;;;;;;2.20;1.40;;;26.80;41.30;;;;;;221105;1275;24196;-47
2023/07/18 17:04:54;;;;;;;3.30;1.60;;;26.80;41.60;;;;;;220885;1261;22525;-47
2023/07/18 17:10:00;;;;;;;1.50;1.30;;;26.80;42.00;;;;;;221063;1262;24222;-49
2023/07/18 17:15:09;;;;;;;2.70;1.30;;;26.80;41.60;;;;;;221148;1262;22639;-46
2023/07/18 17:20:14;;;;;;;3.30;1.60;;;26.80;41.70;;;;;;222673;1254;22967;-49
2023/07/18 17:25:20;;;;;;;1.80;1.60;;;26.80;41.90;;;;;;222618;1257;22480;-46
2023/07/18 17:30:24;;;;;;;1.80;1.40;;;26.80;41.60;;;;;;222944;1260;23742;-46
2023/07/18 17:35:29;;;;;;;2.50;1.40;;;26.80;41.50;;;;;;222780;1250;22638;-49
2023/07/18 17:40:34;;;;;;;1.70;1.50;;;26.70;41.70;;;;;;222799;1257;22504;-48
2023/07/18 17:45:39;;;;;;;1.60;1.40;;;26.70;41.60;;;;;;222564;1254;22595;-47
2023/07/18 17:50:44;;;;;;;3.20;1.50;;;26.70;41.70;;;;;;222655;1264;22508;-48
2023/07/18 17:55:48;;;;;;;1.50;1.20;;;26.70;41.70;;;;;;222546;1260;22804;-48
2023/07/18 18:00:53;;;;;;;2.20;1.70;;;26.70;41.70;;;;;;222935;1263;22556;-46
2023/07/18 18:05:58;;;;;;;1.90;1.50;;;26.60;42.00;;;;;;222709;1260;25252;-44
2023/07/18 18:11:03;;;;;;;1.60;1.30;;;26.60;41.80;;;;;;222408;1253;23195;-47
2023/07/18 18:16:08;;;;;;;1.50;1.40;;;26.60;42.00;;;;;;222396;1264;22511;-47
2023/07/18 18:21:12;;;;;;;1.60;1.30;;;26.60;42.40;;;;;;222523;1253;25284;-45
2023/07/18 18:26:17;;;;;;;1.60;1.20;;;26.60;41.90;;;;;;222552;1253;24231;-47
2023/07/18 18:31:24;;;;;;;1.60;1.50;;;26.60;42.10;;;;;;222811;1254;22521;-47
2023/07/18 18:36:29;;;;;;;4.00;1.90;;;26.60;42.20;;;;;;222263;1254;22638;-46
2023/07/18 18:41:34;;;;;;;4.10;1.70;;;26.60;42.50;;;;;;222465;1268;22696;-49
2023/07/18 18:46:38;;;;;;;2.20;1.50;;;26.60;42.20;;;;;;222510;1263;22507;-46
2023/07/18 18:51:44;;;;;;;1.70;1.60;;;26.50;42.10;;;;;;222647;1250;24231;-48
2023/07/18 18:56:49;;;;;;;2.10;1.90;;;26.50;42.30;;;;;;222693;1264;22636;-49
2023/07/18 19:01:54;;;;;;;1.80;1.30;;;26.60;42.80;;;;;;222446;1265;22534;-46
2023/07/18 19:07:00;;;;;;;1.80;1.60;;;26.50;42.80;;;;;;222724;1254;22514;-47
2023/07/18 19:12:06;;;;;;;2.10;1.90;;;26.60;42.90;;;;;;221898;1264;22535;-49
2023/07/18 19:17:13;;;;;;;2.70;2.50;;;26.50;42.80;;;;;;221880;1271;25252;-47
2023/07/18 19:22:21;;;;;;;2.60;1.80;;;26.50;43.00;;;;;;221917;1266;22556;-48
2023/07/18 19:27:26;;;;;;;1.80;1.70;;;26.50;43.50;;;;;;221809;1266;25326;-45
2023/07/18 19:32:32;;;;;;;2.10;1.90;;;26.50;43.20;;;;;;221722;1259;24205;-46
2023/07/18 19:37:36;;;;;;;2.80;2.40;;;26.50;43.20;;;;;;221980;1268;25597;-46
2023/07/18 19:42:42;;;;;;;2.50;2.30;;;26.50;43.20;;;;;;221636;1263;24241;-46
2023/07/18 19:47:47;;;;;;;2.40;2.20;;;26.50;43.30;;;;;;221961;1254;23382;-48
2023/07/18 19:52:52;;;;;;;2.80;2.30;;;26.40;43.30;;;;;;222550;1256;22552;-47
2023/07/18 19:57:56;;;;;;;3.90;2.50;;;26.40;43.40;;;;;;222450;1268;22507;-46
2023/07/18 20:03:01;;;;;;;2.70;2.30;;;26.40;43.60;;;;;;222240;1266;26765;-49
2023/07/18 20:08:07;;;;;;;2.60;2.40;;;26.40;43.70;;;;;;222678;1267;22572;-45
2023/07/18 20:13:11;;;;;;;2.80;2.60;;;26.40;44.30;;;;;;222699;1263;22520;-47
2023/07/18 20:18:15;;;;;;;4.80;2.70;;;26.40;44.20;;;;;;222538;1263;22617;-48
2023/07/18 20:23:20;;;;;;;3.90;2.40;;;26.40;44.30;;;;;;222684;1266;25118;-49
2023/07/18 20:28:26;;;;;;;3.50;2.70;;;26.40;44.90;;;;;;222654;1266;22524;-45
2023/07/18 20:33:31;;;;;;;2.40;2.20;;;26.40;44.60;;;;;;223115;1260;24241;-45
2023/07/18 20:38:36;;;;;;;2.70;2.40;;;26.40;44.60;;;;;;222403;1268;22634;-46
2023/07/18 20:43:41;;;;;;;2.60;2.40;;;26.40;45.30;;;;;;222546;1266;22513;-45
2023/07/18 20:48:45;;;;;;;4.20;2.20;;;26.30;44.70;;;;;;222542;1266;25210;-47
2023/07/18 20:53:52;;;;;;;3.40;2.40;;;26.30;44.90;;;;;;222609;1259;22566;-50
2023/07/18 20:58:56;;;;;;;2.80;2.50;;;26.40;45.40;;;;;;222444;1260;23895;-49
2023/07/18 21:04:00;;;;;;;3.60;2.70;;;26.30;45.20;;;;;;222682;1261;23383;-47
2023/07/18 21:09:05;;;;;;;3.00;2.60;;;26.30;45.40;;;;;;222612;1260;25246;-46
2023/07/18 21:14:09;;;;;;;3.90;2.80;;;26.30;45.60;;;;;;222389;1254;24212;-47
2023/07/18 21:19:13;;;;;;;4.20;2.30;;;26.30;45.50;;;;;;222571;1263;22505;-46
2023/07/18 21:24:18;;;;;;;3.70;2.30;;;26.30;45.40;;;;;;222551;1265;24170;-45
2023/07/18 21:29:22;;;;;;;3.30;2.80;;;26.30;45.50;;;;;;222511;1261;22507;-46
2023/07/18 21:34:26;;;;;;;2.50;2.30;;;26.20;46.10;;;;;;222510;1263;22508;-47
2023/07/18 21:39:30;;;;;;;2.80;2.40;;;26.20;45.50;;;;;;222550;1260;22520;-46
2023/07/18 21:44:35;;;;;;;4.00;3.00;;;26.20;45.90;;;;;;222412;1262;22497;-47
2023/07/18 21:49:39;;;;;;;4.50;3.60;;;26.20;45.60;;;;;;222759;1266;22640;-46
2023/07/18 21:54:44;;;;;;;5.20;4.70;;;26.20;46.00;;;;;;222361;1263;22543;-45
2023/07/18 21:59:49;;;;;;;5.30;4.80;;;26.10;45.60;;;;;;222680;1267;25343;-46
2023/07/18 22:04:53;;;;;;;5.20;4.20;;;26.10;45.70;;;;;;222523;1266;22626;-45
2023/07/18 22:09:58;;;;;;;5.10;4.60;;;26.10;46.00;;;;;;222331;1261;22514;-46
2023/07/18 22:15:03;;;;;;;5.40;4.40;;;26.10;45.80;;;;;;222846;1264;22540;-44
2023/07/18 22:20:08;;;;;;;4.30;3.90;;;26.00;46.10;;;;;;222988;1254;22518;-46
2023/07/18 22:25:12;;;;;;;6.50;3.80;;;26.00;46.20;;;;;;222738;1260;24236;-51
2023/07/18 22:30:16;;;;;;;4.60;3.60;;;26.00;46.00;;;;;;222411;1261;22498;-48
2023/07/18 22:35:21;;;;;;;4.00;3.50;;;26.00;45.90;;;;;;222428;1257;22514;-47
2023/07/18 22:40:25;;;;;;;4.30;3.80;;;26.00;46.10;;;;;;222548;1263;23770;-49
2023/07/18 22:45:29;;;;;;;4.90;3.10;;;26.00;46.00;;;;;;222332;1267;22512;-47
2023/07/18 22:50:34;;;;;;;4.10;3.60;;;26.00;46.00;;;;;;222478;1252;22917;-45
2023/07/18 22:55:38;;;;;;;3.30;3.00;;;25.90;45.90;;;;;;222446;1258;26670;-46
2023/07/18 23:00:43;;;;;;;4.50;3.10;;;26.00;45.90;;;;;;222540;1253;24362;-47
2023/07/18 23:05:48;;;;;;;4.00;3.00;;;25.90;45.80;;;;;;222637;1261;24219;-44
2023/07/18 23:10:52;;;;;;;3.20;2.90;;;25.90;45.70;;;;;;222376;1257;22568;-45
2023/07/18 23:15:56;;;;;;;3.40;2.80;;;25.80;45.60;;;;;;222176;1266;22523;-48
2023/07/18 23:21:00;;;;;;;4.90;2.90;;;25.90;45.60;;;;;;222307;1266;22616;-49
2023/07/18 23:26:04;;;;;;;3.20;2.90;;;25.80;45.40;;;;;;222173;1269;22530;-45
2023/07/18 23:31:08;;;;;;;2.60;2.40;;;25.80;45.60;;;;;;222203;1253;22527;-46
2023/07/18 23:36:13;;;;;;;2.60;2.40;;;25.80;45.70;;;;;;222081;1266;22508;-47
2023/07/18 23:41:17;;;;;;;2.60;2.40;;;25.70;45.60;;;;;;222244;1260;22512;-48
2023/07/18 23:46:22;;;;;;;3.40;2.40;;;25.70;45.50;;;;;;222528;1254;22508;-49
2023/07/18 23:51:26;;;;;;;2.50;2.30;;;25.70;45.40;;;;;;222322;1266;22592;-47
2023/07/18 23:56:32;;;;;;;2.70;2.50;;;25.70;45.00;;;;;;222554;1266;22595;-47
